Time;durP1;ratioP1;P1;durP2;ratioP2;P2;SDS_P1;SDS_P2;PMS_P1;PMS_P2;Temp;Humidity;BMP_temperature;BMP_pressure;BME280_temperature;BME280_humidity;BME280_pressure;Samples;Min_cycle;Max_cycle;Signal;HPM_P1;HPM_P2
2023/02/18 00:01:44;;;;;;;45.17;25.63;;;11.80;99.90;;;11.75;100.00;102081.97;5075309;28;20056;-67
2023/02/18 00:04:14;;;;;;;41.95;25.98;;;11.70;99.90;;;11.76;100.00;102081.13;5076006;28;20052;-71
2023/02/18 00:06:43;;;;;;;47.70;26.17;;;11.70;99.90;;;11.82;100.00;102107.69;5075523;28;20032;-66
2023/02/18 00:09:12;;;;;;;48.05;27.27;;;11.60;99.90;;;11.79;100.00;102113.84;5075118;28;20072;-66
2023/02/18 00:11:40;;;;;;;47.83;27.05;;;11.50;99.90;;;11.79;100.00;102087.34;5075163;28;20041;-66
2023/02/18 00:14:13;;;;;;;48.85;28.33;;;11.50;99.90;;;11.83;100.00;102084.72;5073755;28;20132;-66
2023/02/18 00:16:44;;;;;;;51.25;29.63;;;11.50;99.90;;;11.82;100.00;102073.22;5075031;28;20068;-67
2023/02/18 00:19:16;;;;;;;46.88;27.63;;;11.50;99.90;;;11.85;100.00;102077.66;5075225;28;20048;-67
2023/02/18 00:21:46;;;;;;;49.72;28.92;;;11.50;99.90;;;11.92;100.00;102068.91;5074572;28;20037;-67
2023/02/18 00:24:16;;;;;;;47.97;27.88;;;11.60;99.90;;;11.70;100.00;102046.59;5074902;28;20056;-66
2023/02/18 00:26:46;;;;;;;45.67;27.30;;;11.60;99.90;;;11.87;100.00;102084.75;5074454;28;20039;-69
2023/02/18 00:29:14;;;;;;;44.13;26.00;;;11.60;99.90;;;11.86;100.00;102080.34;5074611;28;20032;-68
2023/02/18 00:31:44;;;;;;;47.03;27.15;;;11.60;99.90;;;11.90;100.00;102083.91;5073223;28;20037;-67
2023/02/18 00:34:13;;;;;;;51.45;29.27;;;11.60;99.90;;;11.81;100.00;102071.44;5073299;28;20036;-68
2023/02/18 00:36:42;;;;;;;48.72;28.77;;;11.50;99.90;;;11.94;100.00;102069.81;5074476;28;20054;-68
2023/02/18 00:39:12;;;;;;;45.03;26.92;;;11.60;99.90;;;11.90;100.00;102081.25;5074681;28;20133;-67
2023/02/18 00:41:41;;;;;;;44.33;25.83;;;11.60;99.90;;;11.92;100.00;102074.19;5074804;28;20032;-69
2023/02/18 00:44:11;;;;;;;43.33;26.65;;;11.60;99.90;;;11.90;100.00;102066.25;5073129;28;20097;-68
2023/02/18 00:46:40;;;;;;;43.05;24.52;;;11.60;99.90;;;11.88;100.00;102065.34;5073081;28;20102;-67
2023/02/18 00:49:10;;;;;;;42.55;25.17;;;11.60;99.90;;;11.82;100.00;102062.63;5073807;28;20072;-69
2023/02/18 00:51:39;;;;;;;41.28;24.58;;;11.60;99.90;;;11.89;100.00;102066.19;5074238;28;20041;-69
2023/02/18 00:54:08;;;;;;;42.47;24.65;;;11.50;99.90;;;11.57;100.00;102013.75;5074115;28;20032;-69
2023/02/18 00:56:37;;;;;;;39.03;23.55;;;11.50;99.90;;;11.86;100.00;102053.81;5072781;28;20040;-70
2023/02/18 00:59:05;;;;;;;41.95;22.92;;;11.50;99.90;;;11.33;100.00;101973.75;5074196;28;20040;-72
2023/02/18 01:01:34;;;;;;;42.60;24.60;;;11.50;99.90;;;11.81;100.00;102057.31;5073858;28;20036;-69
2023/02/18 01:04:02;;;;;;;39.55;24.08;;;11.50;99.90;;;11.81;100.00;102044.06;5072739;28;20384;-67
2023/02/18 01:06:33;;;;;;;38.83;23.67;;;11.50;99.90;;;11.65;100.00;102035.94;5074021;28;20071;-68
2023/02/18 01:09:03;;;;;;;42.08;22.85;;;11.40;99.90;;;11.48;100.00;102015.41;5072669;28;20045;-69
2023/02/18 01:11:32;;;;;;;37.33;22.88;;;11.40;99.90;;;11.61;100.00;102047.34;5072900;28;20483;-69
2023/02/18 01:14:00;;;;;;;42.72;24.42;;;11.40;99.90;;;11.64;100.00;102039.44;5073928;28;20036;-68
2023/02/18 01:16:30;;;;;;;41.67;23.55;;;11.30;99.90;;;11.62;100.00;102035.88;5072538;28;20131;-69
2023/02/18 01:18:58;;;;;;;46.47;24.70;;;11.30;99.90;;;11.70;100.00;102046.59;5073758;28;20102;-69
2023/02/18 01:21:27;;;;;;;44.80;26.35;;;11.40;99.90;;;11.62;100.00;102027.94;5072410;28;20087;-68
2023/02/18 01:23:57;;;;;;;46.42;27.23;;;11.30;99.90;;;11.60;100.00;102039.38;5072099;28;20059;-68
2023/02/18 01:26:25;;;;;;;46.75;26.90;;;11.30;99.90;;;11.61;100.00;102023.47;5073736;28;20036;-69
2023/02/18 01:28:54;;;;;;;48.72;26.83;;;11.30;99.90;;;11.52;100.00;102028.72;5073148;28;20032;-69
2023/02/18 01:31:22;;;;;;;46.65;28.33;;;11.20;99.90;;;11.58;100.00;102023.47;5072209;28;20044;-69
2023/02/18 01:33:51;;;;;;;47.22;27.00;;;11.30;99.90;;;11.63;100.00;102015.59;5073492;28;20075;-69
2023/02/18 01:36:21;;;;;;;50.88;27.10;;;11.30;99.90;;;11.51;100.00;102011.06;5072119;28;20135;-69
2023/02/18 01:38:49;;;;;;;50.17;27.75;;;11.30;99.90;;;11.59;100.00;102019.06;5072088;28;20090;-68
2023/02/18 01:41:19;;;;;;;48.85;28.30;;;11.30;99.90;;;11.51;100.00;102000.44;5072156;28;20044;-69
2023/02/18 01:43:49;;;;;;;47.67;27.75;;;11.30;99.90;;;11.63;100.00;102013.78;5072507;28;20044;-68
2023/02/18 01:46:20;;;;;;;52.97;29.70;;;11.30;99.90;;;11.39;100.00;101957.94;5073425;28;20091;-69
2023/02/18 01:48:55;;;;;;;48.20;29.27;;;11.30;99.90;;;11.72;100.00;102016.59;5071871;28;20040;-69
2023/02/18 01:51:28;;;;;;;48.88;28.77;;;11.40;99.90;;;11.77;100.00;102011.31;5073070;28;20071;-69
2023/02/18 01:54:03;;;;;;;49.78;29.25;;;11.40;99.90;;;11.76;100.00;101997.19;5073343;28;20048;-69
2023/02/18 01:56:40;;;;;;;52.15;29.33;;;11.50;99.90;;;11.75;100.00;101995.38;5073259;28;20071;-68
2023/02/18 01:59:13;;;;;;;55.72;29.83;;;11.50;99.90;;;11.63;100.00;101978.47;5072998;28;20119;-68
2023/02/18 02:01:44;;;;;;;48.30;29.00;;;11.50;99.90;;;11.82;100.00;101996.34;5072024;28;20040;-69
2023/02/18 02:04:13;;;;;;;46.95;29.10;;;11.50;99.90;;;11.19;100.00;101863.28;5073281;28;20044;-68
2023/02/18 02:06:42;;;;;;;48.10;28.08;;;11.50;99.90;;;11.85;100.00;101983.09;5071576;28;20047;-68
2023/02/18 02:09:16;;;;;;;51.63;29.95;;;11.60;99.90;;;11.91;100.00;101980.50;5071841;28;20040;-69
2023/02/18 02:12:21;;;;;;;48.05;28.95;;;11.60;99.90;;;11.94;100.00;101971.69;5072037;28;20051;-69
2023/02/18 02:15:25;;;;;;;45.03;26.55;;;11.60;99.90;;;11.90;100.00;101962.84;5071809;28;20075;-69
2023/02/18 02:18:27;;;;;;;48.55;26.77;;;11.60;99.90;;;11.88;100.00;101961.03;5072443;28;20501;-69
2023/02/18 02:22:00;;;;;;;47.78;26.35;;;11.50;99.90;;;11.89;100.00;101965.44;5072457;28;20440;-69
2023/02/18 02:24:56;;;;;;;45.50;25.63;;;11.60;99.90;;;11.90;100.00;101957.53;5072342;28;20044;-68
2023/02/18 02:27:40;;;;;;;44.33;24.08;;;11.60;99.90;;;11.90;100.00;101948.69;5072522;28;20032;-69
2023/02/18 02:30:54;;;;;;;42.55;24.45;;;11.60;99.90;;;11.76;100.00;101935.31;5072770;28;20032;-69
2023/02/18 02:34:16;;;;;;;40.30;22.67;;;11.50;99.90;;;11.69;100.00;101928.22;5070881;28;20135;-69
2023/02/18 02:36:54;;;;;;;32.75;21.13;;;11.50;99.90;;;11.63;100.00;101901.63;5064071;28;20048;-68
2023/02/18 02:39:35;;;;;;;32.58;19.67;;;11.40;99.90;;;11.68;100.00;101913.16;5071396;28;20506;-69
2023/02/18 02:42:13;;;;;;;28.92;18.52;;;11.40;99.90;;;11.61;100.00;101906.88;5071335;28;20158;-69
2023/02/18 02:44:49;;;;;;;31.65;17.83;;;11.30;99.90;;;11.64;100.00;101901.63;5072518;28;20463;-69
2023/02/18 02:47:27;;;;;;;25.15;16.67;;;11.40;99.90;;;11.64;100.00;101890.13;5072167;28;20028;-68
2023/02/18 02:50:04;;;;;;;27.13;17.67;;;11.30;99.90;;;11.53;100.00;101884.75;5070997;28;20045;-69
2023/02/18 02:52:38;;;;;;;25.90;15.75;;;11.30;99.90;;;11.61;100.00;101893.63;5071182;28;20044;-69
2023/02/18 02:55:11;;;;;;;23.10;14.80;;;11.30;99.90;;;11.66;100.00;101889.31;5071149;28;20048;-69
2023/02/18 02:57:49;;;;;;;25.15;14.77;;;11.30;99.90;;;11.55;100.00;101872.41;5071309;28;20383;-68
2023/02/18 03:00:38;;;;;;;22.73;13.90;;;11.30;99.90;;;11.57;100.00;101877.72;5071579;28;20052;-69
2023/02/18 03:03:39;;;;;;;24.70;14.93;;;11.30;99.90;;;11.56;100.00;101882.13;5071284;28;20048;-68
2023/02/18 03:06:37;;;;;;;36.65;19.33;;;11.30;99.90;;;11.62;100.00;101875.97;5071217;28;20069;-68
2023/02/18 03:09:16;;;;;;;39.58;20.45;;;11.30;99.90;;;11.65;100.00;101865.41;5071640;28;20094;-69
2023/02/18 03:11:55;;;;;;;39.83;20.95;;;11.30;99.90;;;11.69;100.00;101876.06;5076299;28;20033;-69
2023/02/18 03:14:30;;;;;;;39.10;20.42;;;11.40;99.90;;;11.65;100.00;101862.78;5074872;28;20491;-69
2023/02/18 03:17:03;;;;;;;35.47;19.70;;;11.40;99.90;;;11.72;100.00;101867.25;5075895;28;20538;-69
2023/02/18 03:19:36;;;;;;;34.20;18.33;;;11.50;99.90;;;11.62;100.00;101860.06;5075835;28;20040;-69
2023/02/18 03:22:10;;;;;;;32.53;18.30;;;11.40;99.90;;;11.51;100.00;101851.16;5074798;28;20048;-69
2023/02/18 03:24:44;;;;;;;31.23;18.25;;;11.30;99.90;;;11.57;100.00;101857.41;5074575;28;20051;-69
2023/02/18 03:27:20;;;;;;;32.67;19.27;;;11.30;99.90;;;11.53;100.00;101836.19;5074671;28;20467;-69
2023/02/18 03:29:54;;;;;;;35.88;19.60;;;11.30;99.90;;;11.54;100.00;101817.63;5074492;28;20040;-69
2023/02/18 03:32:25;;;;;;;33.78;19.10;;;11.30;99.90;;;11.50;100.00;101825.53;5075838;28;20052;-68
2023/02/18 03:35:02;;;;;;;31.05;18.38;;;11.30;99.90;;;11.43;100.00;101815.78;5074526;28;20048;-68
2023/02/18 03:37:32;;;;;;;25.58;16.85;;;11.20;99.90;;;11.41;100.00;101809.59;5075781;28;20032;-68
2023/02/18 03:40:03;;;;;;;30.05;17.20;;;11.10;99.90;;;11.41;100.00;101807.84;5075778;28;20040;-68
2023/02/18 03:42:32;;;;;;;25.75;16.23;;;11.20;99.90;;;11.56;100.00;101810.59;5076079;28;20036;-68
2023/02/18 03:45:00;;;;;;;24.58;16.25;;;11.30;99.90;;;11.51;100.00;101809.69;5074297;28;20040;-68
2023/02/18 03:47:29;;;;;;;23.23;16.73;;;11.20;99.90;;;11.51;100.00;101788.47;5075513;28;20532;-68
2023/02/18 03:49:57;;;;;;;26.83;15.77;;;11.30;99.90;;;11.42;100.00;101767.19;5074095;28;20045;-68
2023/02/18 03:52:26;;;;;;;28.90;17.52;;;11.30;99.90;;;11.41;100.00;101791.94;5075409;28;20139;-68
2023/02/18 03:54:54;;;;;;;31.90;17.23;;;11.20;99.90;;;11.43;100.00;101784.88;5075445;28;20410;-68
2023/02/18 03:57:24;;;;;;;30.83;18.50;;;11.10;99.90;;;11.35;100.00;101786.59;5074111;28;20529;-68
2023/02/18 03:59:52;;;;;;;34.55;19.40;;;11.10;99.90;;;11.41;100.00;101791.94;5075113;28;20450;-68
2023/02/18 04:02:20;;;;;;;37.78;20.60;;;11.10;99.90;;;11.40;100.00;101790.16;5074050;28;20131;-68
2023/02/18 04:04:49;;;;;;;41.30;21.83;;;11.20;99.90;;;11.41;100.00;101799.00;5075064;28;20471;-69
2023/02/18 04:07:17;;;;;;;39.67;21.67;;;11.20;99.90;;;11.37;100.00;101787.50;5075297;28;20052;-69
2023/02/18 04:09:45;;;;;;;41.38;22.08;;;11.10;99.90;;;11.40;100.00;101791.94;5075042;28;20348;-68
2023/02/18 04:12:14;;;;;;;44.15;22.30;;;11.20;99.90;;;11.39;100.00;101790.16;5074829;28;20045;-68
2023/02/18 04:14:44;;;;;;;51.92;22.85;;;11.10;99.90;;;11.36;100.00;101785.69;5074780;28;20032;-68
2023/02/18 04:17:12;;;;;;;45.50;23.27;;;11.10;99.90;;;11.38;100.00;101788.38;5073730;28;20491;-68
2023/02/18 04:19:40;;;;;;;46.08;23.63;;;11.10;99.90;;;11.37;100.00;101773.34;5073293;28;20068;-69
2023/02/18 04:22:09;;;;;;;49.10;22.50;;;11.20;99.90;;;11.38;100.00;101783.09;5073535;28;20040;-68
2023/02/18 04:24:37;;;;;;;44.20;22.23;;;11.10;99.90;;;11.42;100.00;101790.19;5073112;28;20095;-68
2023/02/18 04:27:05;;;;;;;46.58;22.30;;;11.20;99.90;;;11.39;100.00;101785.75;5074458;28;20543;-68
2023/02/18 04:29:34;;;;;;;41.13;21.45;;;11.10;99.90;;;11.35;100.00;101778.66;5074377;28;20106;-68
2023/02/18 04:32:04;;;;;;;43.10;20.30;;;11.10;99.90;;;11.35;100.00;101777.75;5073436;28;20039;-68
2023/02/18 04:34:32;;;;;;;39.38;21.33;;;11.10;99.90;;;11.35;100.00;101781.28;5074722;28;20097;-68
2023/02/18 04:37:01;;;;;;;38.67;22.25;;;11.10;99.90;;;11.39;100.00;101779.56;5074360;28;20494;-68
2023/02/18 04:39:29;;;;;;;43.60;22.00;;;11.20;99.90;;;11.35;100.00;101769.81;5074297;28;20044;-68
2023/02/18 04:41:57;;;;;;;41.75;21.50;;;11.10;99.90;;;11.39;100.00;101761.91;5074246;28;20111;-68
2023/02/18 04:44:26;;;;;;;38.65;19.98;;;11.10;99.90;;;11.38;100.00;101752.16;5074238;28;20060;-68
2023/02/18 04:46:54;;;;;;;38.45;21.60;;;11.20;99.90;;;11.34;100.00;101742.41;5074447;28;20067;-68
2023/02/18 04:49:24;;;;;;;46.17;22.48;;;11.10;99.90;;;11.40;100.00;101734.53;5074710;28;20033;-68
2023/02/18 04:51:52;;;;;;;37.45;21.13;;;11.20;99.90;;;10.68;100.00;101612.28;5074313;28;20032;-68
2023/02/18 04:54:20;;;;;;;36.70;20.77;;;11.20;99.90;;;11.42;100.00;101738.06;5073825;28;20041;-68
2023/02/18 04:56:48;;;;;;;34.05;19.83;;;11.20;99.90;;;11.44;100.00;101741.63;5072760;28;20041;-68
2023/02/18 04:59:17;;;;;;;34.40;20.23;;;11.20;99.90;;;11.46;100.00;101747.81;5073752;28;20390;-68
2023/02/18 05:01:45;;;;;;;37.80;20.88;;;11.20;99.90;;;11.46;100.00;101744.25;5074005;28;20115;-69
2023/02/18 05:04:14;;;;;;;35.75;20.95;;;11.20;99.90;;;11.48;100.00;101750.47;5072672;28;20048;-68
2023/02/18 05:06:44;;;;;;;38.38;20.45;;;11.20;99.90;;;11.49;100.00;101742.53;5073706;28;20051;-68
2023/02/18 05:09:13;;;;;;;34.27;18.97;;;11.30;99.90;;;11.51;100.00;101746.09;5072671;28;20037;-68
2023/02/18 05:11:42;;;;;;;37.20;19.80;;;11.30;99.90;;;11.56;100.00;101747.00;5073571;28;20298;-68
2023/02/18 05:14:10;;;;;;;28.15;18.98;;;11.30;99.90;;;11.52;100.00;101739.91;5073775;28;20040;-68
2023/02/18 05:16:39;;;;;;;29.20;18.00;;;11.30;99.90;;;11.60;100.00;101724.03;5073743;28;20040;-68
2023/02/18 05:19:07;;;;;;;35.72;19.83;;;11.40;99.90;;;11.66;100.00;101735.59;5074040;28;20032;-68
2023/02/18 05:21:35;;;;;;;34.50;20.05;;;11.40;99.90;;;11.12;100.00;101631.06;5073950;28;20090;-68
2023/02/18 05:24:07;;;;;;;31.80;19.70;;;11.40;99.90;;;11.65;100.00;101727.63;5073416;28;20041;-68
2023/02/18 05:26:36;;;;;;;33.88;19.70;;;11.40;99.90;;;11.11;100.00;101624.88;5073600;28;20344;-68
2023/02/18 05:29:04;;;;;;;36.28;20.17;;;11.40;99.90;;;11.65;100.00;101717.00;5073738;28;20135;-68
2023/02/18 05:31:33;;;;;;;36.97;20.08;;;11.40;99.90;;;11.70;100.00;101716.19;5073098;28;20037;-68
2023/02/18 05:34:01;;;;;;;37.30;20.27;;;11.40;99.90;;;11.58;100.00;101716.09;5073195;28;20056;-68
2023/02/18 05:36:29;;;;;;;39.75;22.02;;;11.40;99.90;;;11.59;100.00;101712.53;5072290;28;20071;-68
2023/02/18 05:38:58;;;;;;;43.85;22.20;;;11.40;99.90;;;11.60;100.00;101713.44;5073287;28;20044;-68
2023/02/18 05:41:27;;;;;;;43.40;22.55;;;11.30;99.90;;;11.57;100.00;101711.69;5073220;28;20075;-68
2023/02/18 05:46:42;;;;;;;42.90;23.02;;;11.30;99.90;;;11.53;100.00;101715.19;5073185;28;20446;-68
2023/02/18 05:49:10;;;;;;;43.97;22.75;;;11.20;99.90;;;11.54;100.00;101709.00;5073089;28;20360;-68
2023/02/18 05:51:39;;;;;;;52.15;23.00;;;11.30;99.90;;;11.52;100.00;101705.44;5071991;28;20075;-68
2023/02/18 05:54:07;;;;;;;48.13;23.48;;;11.30;99.90;;;10.86;100.00;101600.03;5073001;28;20056;-68
2023/02/18 05:56:37;;;;;;;62.38;25.48;;;11.20;99.90;;;11.51;100.00;101702.81;5071679;28;20139;-68
2023/02/18 05:59:05;;;;;;;50.00;23.13;;;11.30;99.90;;;11.47;100.00;101706.31;5073270;28;20135;-68
2023/02/18 06:01:34;;;;;;;51.50;22.13;;;11.30;99.90;;;11.42;100.00;101714.22;5073193;28;20039;-68
2023/02/18 06:04:02;;;;;;;49.13;21.00;;;11.20;99.90;;;11.40;100.00;101683.31;5072856;28;20036;-68
2023/02/18 06:06:31;;;;;;;56.75;20.25;;;11.10;99.90;;;11.44;100.00;101685.97;5073044;28;20062;-69
2023/02/18 06:08:59;;;;;;;48.33;19.80;;;11.20;99.90;;;11.42;100.00;101690.38;5072782;28;20040;-68
2023/02/18 06:11:27;;;;;;;48.15;19.13;;;11.20;99.90;;;11.45;100.00;101703.66;5072752;28;20036;-68
2023/02/18 06:13:57;;;;;;;53.38;18.38;;;11.20;99.90;;;11.21;100.00;101677.03;5072755;28;20039;-68
2023/02/18 06:16:26;;;;;;;55.97;17.03;;;11.20;99.90;;;11.35;100.00;101696.53;5071779;28;20051;-68
2023/02/18 06:18:54;;;;;;;51.88;17.45;;;11.20;99.90;;;11.37;100.00;101694.78;5072775;28;20037;-68
2023/02/18 06:21:23;;;;;;;56.60;17.35;;;11.10;99.90;;;11.38;100.00;101691.25;5072739;28;20044;-68
2023/02/18 06:23:51;;;;;;;47.28;17.83;;;11.20;99.90;;;11.36;100.00;101702.72;5072793;28;20494;-68
2023/02/18 06:26:20;;;;;;;54.35;16.85;;;11.10;99.90;;;11.42;100.00;101693.03;5072666;28;20115;-69
2023/02/18 06:28:48;;;;;;;49.13;15.23;;;11.20;99.90;;;11.35;100.00;101703.59;5072893;28;20434;-69
2023/02/18 06:31:18;;;;;;;55.38;16.38;;;11.10;99.90;;;11.35;100.00;101709.78;5072603;28;20060;-68
2023/02/18 06:33:47;;;;;;;54.58;15.65;;;11.10;99.90;;;11.25;100.00;101693.81;5072832;28;20063;-68
2023/02/18 06:36:15;;;;;;;54.17;15.07;;;11.10;99.90;;;11.33;100.00;101711.53;5072818;28;20119;-68
2023/02/18 06:38:45;;;;;;;39.58;11.63;;;11.10;99.90;;;11.30;100.00;101714.19;5072451;28;20040;-68
2023/02/18 06:41:14;;;;;;;43.78;11.98;;;11.10;99.90;;;11.28;100.00;101725.63;5073111;28;20124;-68
2023/02/18 06:43:43;;;;;;;52.83;12.25;;;11.10;99.90;;;11.25;100.00;101700.00;5073078;28;20082;-68
2023/02/18 06:46:11;;;;;;;49.55;11.85;;;11.10;99.90;;;11.27;100.00;101713.25;5076469;28;20032;-68
2023/02/18 06:48:41;;;;;;;53.00;12.13;;;11.00;99.90;;;11.20;100.00;101701.75;5076440;28;20082;-68
2023/02/18 06:51:10;;;;;;;57.30;12.47;;;11.00;99.90;;;11.26;100.00;101700.91;5076359;28;20123;-69
2023/02/18 06:53:38;;;;;;;66.35;12.25;;;11.00;99.90;;;11.21;100.00;101703.50;5076328;28;20029;-68
2023/02/18 06:56:06;;;;;;;47.72;11.60;;;11.00;99.90;;;11.22;100.00;101685.88;5076248;28;20074;-68
2023/02/18 06:58:35;;;;;;;57.22;10.70;;;11.00;99.90;;;11.12;100.00;101692.88;5076514;28;20109;-69
2023/02/18 07:01:04;;;;;;;52.80;11.15;;;10.90;99.90;;;11.14;100.00;101690.22;5076408;28;20032;-69
2023/02/18 07:03:33;;;;;;;47.47;10.32;;;10.90;99.90;;;11.10;100.00;101680.47;5074994;28;20135;-69
2023/02/18 07:06:03;;;;;;;56.30;11.05;;;10.90;99.90;;;11.04;100.00;101681.34;5076426;28;20068;-69
2023/02/18 07:08:35;;;;;;;55.03;11.23;;;10.90;99.90;;;11.15;100.00;101674.34;5076311;28;20036;-69
2023/02/18 07:11:03;;;;;;;42.65;10.27;;;10.90;99.90;;;11.16;100.00;101684.06;5075964;28;20037;-69
2023/02/18 07:13:32;;;;;;;49.53;9.88;;;11.00;99.90;;;11.17;100.00;101691.13;5076237;28;20052;-69
2023/02/18 07:16:00;;;;;;;50.08;12.00;;;10.90;99.90;;;11.08;100.00;101677.84;5074842;28;20466;-69
2023/02/18 07:18:29;;;;;;;53.85;11.00;;;10.90;99.90;;;11.12;100.00;101684.03;5074536;28;20127;-69
2023/02/18 07:20:57;;;;;;;51.22;11.57;;;10.90;99.90;;;11.18;100.00;101690.25;5075818;28;20457;-69
2023/02/18 07:23:27;;;;;;;44.97;10.48;;;10.90;99.90;;;11.14;100.00;101688.47;5075721;28;20445;-68
2023/02/18 07:26:05;;;;;;;45.83;11.17;;;10.90;99.90;;;11.16;100.00;101692.00;5075702;28;20040;-69
2023/02/18 07:28:34;;;;;;;49.20;10.77;;;10.90;99.90;;;11.16;100.00;101692.00;5074618;28;20127;-69
2023/02/18 07:31:03;;;;;;;47.78;11.15;;;10.90;99.90;;;11.10;100.00;101688.44;5075834;28;20274;-69
2023/02/18 07:33:32;;;;;;;38.15;9.18;;;10.90;99.90;;;11.12;100.00;101691.97;5075494;28;20040;-69
2023/02/18 07:36:01;;;;;;;51.05;10.85;;;10.90;99.90;;;11.16;100.00;101692.00;5075482;28;20111;-69
2023/02/18 07:38:31;;;;;;;44.70;9.85;;;10.90;99.90;;;11.17;100.00;101692.91;5074333;28;20049;-69
2023/02/18 07:41:00;;;;;;;47.20;10.02;;;11.00;99.90;;;11.23;100.00;101692.91;5074240;28;20072;-69
2023/02/18 07:43:28;;;;;;;43.80;9.35;;;11.00;99.90;;;11.23;100.00;101688.50;5075182;28;20116;-69
2023/02/18 07:45:57;;;;;;;47.33;10.18;;;11.00;99.90;;;11.23;100.00;101696.47;5075361;28;20037;-69
2023/02/18 07:48:25;;;;;;;46.17;9.05;;;11.00;99.90;;;11.20;100.00;101692.91;5075297;28;20459;-69
2023/02/18 07:50:54;;;;;;;50.75;10.10;;;11.00;99.90;;;11.13;100.00;101684.03;5074188;28;20488;-69
2023/02/18 07:53:22;;;;;;;40.22;9.73;;;11.00;99.90;;;11.20;100.00;101692.91;5075130;28;20044;-69
2023/02/18 07:55:52;;;;;;;49.45;10.10;;;10.90;99.90;;;11.20;100.00;101699.09;5074343;28;20036;-69
2023/02/18 07:58:24;;;;;;;43.53;9.90;;;11.00;99.90;;;11.17;100.00;101682.31;5075119;28;20040;-68
2023/02/18 08:00:53;;;;;;;38.33;9.00;;;10.90;99.90;;;11.18;100.00;101692.00;5075433;28;20115;-68
2023/02/18 08:03:24;;;;;;;40.97;9.70;;;11.00;99.90;;;11.22;100.00;101704.41;5075116;28;20041;-68
2023/02/18 08:05:53;;;;;;;37.90;8.77;;;11.00;99.90;;;11.14;100.00;101684.91;5075043;28;20119;-67
2023/02/18 08:08:25;;;;;;;52.80;9.82;;;11.00;99.90;;;11.24;100.00;101706.19;5073866;28;20390;-68
2023/02/18 08:10:57;;;;;;;46.63;9.75;;;11.00;99.90;;;11.32;100.00;101703.59;5075232;28;20055;-68
2023/02/18 08:13:30;;;;;;;43.85;9.80;;;11.10;99.90;;;11.33;100.00;101686.81;5073901;28;20044;-68
2023/02/18 08:15:59;;;;;;;42.58;8.90;;;11.10;99.90;;;11.25;100.00;101694.69;5074813;28;20048;-68
2023/02/18 08:18:27;;;;;;;41.45;9.50;;;11.10;99.90;;;11.21;100.00;101706.16;5074689;28;20047;-68
2023/02/18 08:20:56;;;;;;;54.00;9.95;;;11.00;99.90;;;11.20;100.00;101692.91;5075011;28;20119;-68
2023/02/18 08:23:25;;;;;;;43.40;9.48;;;11.00;99.90;;;11.21;100.00;101708.81;5074509;28;20055;-67
2023/02/18 08:25:54;;;;;;;41.25;9.23;;;11.00;99.90;;;11.24;100.00;101705.28;5074713;28;20072;-68
2023/02/18 08:28:26;;;;;;;41.67;9.10;;;11.00;99.90;;;11.26;100.00;101698.25;5073402;28;20357;-67
2023/02/18 08:30:55;;;;;;;38.75;9.57;;;11.00;99.90;;;11.28;100.00;101689.44;5074722;28;20032;-67
2023/02/18 08:33:24;;;;;;;42.55;9.32;;;11.00;99.90;;;11.23;100.00;101706.16;5074089;28;20070;-66
2023/02/18 08:35:55;;;;;;;42.75;8.63;;;11.00;99.90;;;11.17;100.00;101684.97;5074740;28;20059;-67
2023/02/18 08:38:25;;;;;;;51.20;9.60;;;11.00;99.90;;;11.14;100.00;101698.16;5073135;28;20494;-68
2023/02/18 08:41:05;;;;;;;44.23;9.27;;;10.90;99.90;;;11.17;100.00;101691.13;5073259;28;20437;-65
2023/02/18 08:43:34;;;;;;;38.60;8.85;;;10.90;99.90;;;11.16;100.00;101714.94;5073070;28;20537;-66
2023/02/18 08:46:03;;;;;;;43.97;8.80;;;10.90;99.90;;;11.28;100.00;101709.72;5073932;28;20044;-66
2023/02/18 08:48:31;;;;;;;36.10;9.32;;;11.00;99.90;;;11.24;100.00;101715.88;5074405;28;20040;-67
2023/02/18 08:51:00;;;;;;;45.08;9.05;;;11.00;99.90;;;11.26;100.00;101711.50;5074024;28;20075;-67
2023/02/18 08:53:28;;;;;;;41.63;9.40;;;11.00;99.90;;;11.23;100.00;101720.28;5072596;28;20036;-68
2023/02/18 08:55:57;;;;;;;45.80;10.10;;;11.00;99.90;;;11.04;100.00;101710.44;5073795;28;20044;-67
2023/02/18 08:58:27;;;;;;;37.08;9.02;;;11.00;99.90;;;11.15;100.00;101692.00;5073670;28;20071;-67
2023/02/18 09:00:55;;;;;;;46.57;10.50;;;11.00;99.90;;;11.23;100.00;101708.81;5073738;28;20488;-67
2023/02/18 09:03:23;;;;;;;41.92;9.43;;;11.00;99.90;;;11.21;100.00;101729.97;5072630;28;20119;-68
2023/02/18 09:05:52;;;;;;;43.15;8.38;;;11.00;99.90;;;11.16;100.00;101721.13;5073843;28;20036;-67
2023/02/18 09:08:20;;;;;;;50.70;9.57;;;11.00;99.90;;;11.24;100.00;101730.03;5072549;28;20143;-67
2023/02/18 09:10:49;;;;;;;52.70;10.93;;;11.00;99.90;;;11.20;100.00;101727.34;5072518;28;20426;-67
2023/02/18 09:13:17;;;;;;;51.00;11.00;;;11.00;99.90;;;11.30;100.00;101732.72;5073399;28;20043;-67
2023/02/18 09:15:57;;;;;;;52.40;9.88;;;11.10;99.90;;;11.27;100.00;101719.44;5073733;28;20045;-69
2023/02/18 09:18:26;;;;;;;56.95;12.98;;;11.10;99.90;;;11.24;100.00;101735.31;5073500;28;20075;-70
2023/02/18 09:20:57;;;;;;;52.97;9.95;;;11.00;99.90;;;11.26;100.00;101741.50;5073385;28;20075;-64
2023/02/18 09:23:28;;;;;;;45.50;10.30;;;11.00;99.90;;;11.19;100.00;101736.16;5073496;28;20063;-74
2023/02/18 09:25:56;;;;;;;46.58;9.85;;;11.00;99.90;;;11.28;100.00;101731.81;5072292;28;20117;-67
2023/02/18 09:28:25;;;;;;;42.72;9.18;;;11.10;99.90;;;11.36;100.00;101745.97;5073630;28;20064;-68
2023/02/18 09:30:55;;;;;;;43.80;9.43;;;11.10;99.90;;;11.22;100.00;101717.63;5073514;28;20040;-66
2023/02/18 09:33:24;;;;;;;39.33;8.27;;;11.20;99.90;;;11.33;100.00;101739.78;5073317;28;20403;-66
2023/02/18 09:35:52;;;;;;;52.40;9.98;;;11.10;99.90;;;11.36;100.00;101763.66;5072940;28;20072;-66
2023/02/18 09:38:21;;;;;;;50.05;9.85;;;11.10;99.90;;;11.44;100.00;101751.34;5073017;28;20400;-65
2023/02/18 09:40:53;;;;;;;46.05;10.52;;;11.20;99.90;;;11.46;100.00;101757.50;5072929;28;20055;-64
2023/02/18 09:43:30;;;;;;;48.13;8.85;;;11.20;99.90;;;11.41;100.00;101754.84;5072929;28;20055;-66
2023/02/18 09:46:03;;;;;;;46.78;10.48;;;11.20;99.90;;;11.45;100.00;101751.34;5073126;28;20054;-66
2023/02/18 09:48:34;;;;;;;41.72;8.88;;;11.20;99.90;;;11.44;100.00;101764.59;5073039;28;20048;-67
2023/02/18 09:51:02;;;;;;;41.55;10.10;;;11.20;99.90;;;11.41;100.00;101776.03;5072826;28;20378;-66
2023/02/18 09:53:31;;;;;;;47.97;10.48;;;11.20;99.90;;;11.55;100.00;101784.97;5072576;28;20032;-66
2023/02/18 09:56:01;;;;;;;50.15;9.82;;;11.30;99.90;;;11.62;100.00;101767.34;5072767;28;20068;-65
2023/02/18 09:58:31;;;;;;;47.28;8.70;;;11.40;99.90;;;11.57;100.00;101782.31;5072736;28;20467;-65
2023/02/18 10:01:06;;;;;;;43.63;9.20;;;11.40;99.90;;;11.02;100.00;101672.50;5073025;28;20398;-65
2023/02/18 10:03:35;;;;;;;46.20;9.98;;;11.40;99.90;;;11.64;99.88;101785.03;5072808;28;20048;-66
2023/02/18 10:06:06;;;;;;;37.35;9.25;;;11.40;99.90;;;11.64;100.00;101774.41;5072819;28;20041;-66
2023/02/18 10:08:39;;;;;;;45.88;8.98;;;11.50;99.90;;;11.64;100.00;101758.53;5072466;28;20036;-65
2023/02/18 10:11:15;;;;;;;40.28;8.68;;;11.50;99.90;;;11.68;100.00;101778.91;5072485;28;20048;-67
2023/02/18 10:13:44;;;;;;;42.92;10.00;;;11.50;99.90;;;11.91;100.00;101784.31;5072536;28;20384;-67
2023/02/18 10:16:18;;;;;;;42.10;8.75;;;11.60;99.90;;;11.91;99.72;101776.34;5072463;28;20040;-66